Time;durP1;ratioP1;P1;durP2;ratioP2;P2;SDS_P1;SDS_P2;PMS_P1;PMS_P2;Temp;Humidity;BMP_temperature;BMP_pressure;BME280_temperature;BME280_humidity;BME280_pressure;Samples;Min_cycle;Max_cycle;Signal;HPM_P1;HPM_P2
2023/03/03 00:04:04;;;;;;;92.90;45.43;;;1.70;99.90;;;;;;2614780;54;20391;-72
2023/03/03 00:09:51;;;;;;;86.97;43.23;;;1.60;99.90;;;;;;2613451;54;20227;-72
2023/03/03 00:15:39;;;;;;;92.33;43.07;;;1.60;99.90;;;;;;2612903;54;20162;-72
2023/03/03 00:21:28;;;;;;;93.17;43.17;;;1.70;99.90;;;;;;2613005;54;20211;-73
2023/03/03 00:27:28;;;;;;;88.97;44.17;;;1.70;99.90;;;;;;2613747;54;20389;-73
2023/03/03 00:39:38;;;;;;;70.87;37.63;;;1.60;99.90;;;;;;2613844;54;20378;-72
2023/03/03 00:48:49;;;;;;;88.67;45.20;;;1.60;99.90;;;;;;2612477;54;20477;-73
2023/03/03 00:54:37;;;;;;;83.37;40.73;;;1.70;99.90;;;;;;2613375;54;20944;-72
2023/03/03 01:00:24;;;;;;;78.50;36.87;;;1.60;99.90;;;;;;2613596;54;20277;-73
2023/03/03 01:06:13;;;;;;;84.77;48.27;;;1.60;99.90;;;;;;2614282;54;20178;-73
2023/03/03 01:12:00;;;;;;;87.93;39.30;;;1.50;99.90;;;;;;2612827;39;20750;-72
2023/03/03 01:17:48;;;;;;;73.90;38.10;;;1.60;99.90;;;;;;2613427;54;20255;-72
2023/03/03 01:23:36;;;;;;;87.03;40.00;;;1.60;99.90;;;;;;2613656;54;20957;-73
2023/03/03 01:29:24;;;;;;;90.40;40.50;;;1.70;99.90;;;;;;2612795;54;20126;-73
2023/03/03 01:35:12;;;;;;;80.73;44.07;;;1.60;99.90;;;;;;2614030;54;20126;-73
2023/03/03 01:40:59;;;;;;;63.90;36.67;;;1.60;99.90;;;;;;2613015;54;20154;-72
2023/03/03 01:47:25;;;;;;;67.00;35.70;;;1.60;99.90;;;;;;2612223;54;20198;-73
2023/03/03 01:56:14;;;;;;;81.80;39.40;;;1.50;99.90;;;;;;2613440;54;20387;-72
2023/03/03 02:02:03;;;;;;;60.73;33.37;;;1.60;99.90;;;;;;2612338;54;20154;-74
2023/03/03 02:07:52;;;;;;;45.90;29.10;;;1.50;99.90;;;;;;2613605;54;20467;-68
2023/03/03 02:13:39;;;;;;;60.23;31.00;;;1.40;99.90;;;;;;2614656;39;20817;-68
2023/03/03 02:26:08;;;;;;;73.63;35.37;;;1.30;99.90;;;;;;2614008;54;20446;-69
2023/03/03 02:31:56;;;;;;;73.53;39.13;;;1.30;99.90;;;;;;2613870;39;20756;-69
2023/03/03 02:37:44;;;;;;;69.17;34.97;;;1.40;99.90;;;;;;2614664;54;20173;-68
2023/03/03 02:53:23;;;;;;;66.40;32.03;;;1.20;99.90;;;;;;2613918;54;20436;-68
2023/03/03 02:59:11;;;;;;;67.87;35.70;;;1.20;99.90;;;;;;2613861;54;20787;-68
2023/03/03 03:04:59;;;;;;;68.63;31.27;;;1.30;99.90;;;;;;2614503;54;20342;-68
2023/03/03 03:10:46;;;;;;;58.03;31.60;;;1.20;99.90;;;;;;2613693;39;20649;-67
2023/03/03 03:16:35;;;;;;;74.30;33.57;;;1.20;99.90;;;;;;2613827;54;20162;-67
2023/03/03 03:19:38;;;;;;;61.43;31.67;;;1.10;99.90;;;;;;2613073;54;20418;-68
2023/03/03 03:22:04;;;;;;;68.43;30.73;;;1.10;99.90;;;;;;2612410;54;20422;-72
2023/03/03 03:27:51;;;;;;;56.53;30.77;;;1.20;99.90;;;;;;2614441;39;20555;-73
2023/03/03 03:33:39;;;;;;;60.93;31.53;;;1.30;99.90;;;;;;2611951;54;20158;-72
2023/03/03 03:39:27;;;;;;;49.03;28.60;;;1.30;99.90;;;;;;2614187;54;20275;-73
2023/03/03 03:45:14;;;;;;;61.77;29.67;;;1.30;99.90;;;;;;2614592;54;20668;-72
2023/03/03 03:48:18;;;;;;;57.23;30.53;;;1.30;99.90;;;;;;2612537;54;20407;-72
2023/03/03 03:50:46;;;;;;;56.87;30.37;;;1.30;99.90;;;;;;2613098;54;20174;-73
2023/03/03 03:56:34;;;;;;;52.20;25.77;;;1.10;99.90;;;;;;2612721;54;20362;-73
2023/03/03 04:02:22;;;;;;;55.70;28.53;;;0.90;99.90;;;;;;2614412;54;20126;-72
2023/03/03 04:08:10;;;;;;;44.87;24.80;;;0.80;99.90;;;;;;2614569;54;20134;-72
2023/03/03 04:13:58;;;;;;;49.30;24.70;;;0.90;99.90;;;;;;2613449;54;22287;-72
2023/03/03 04:19:46;;;;;;;36.70;23.00;;;0.80;99.90;;;;;;2614544;54;20123;-72
2023/03/03 04:25:33;;;;;;;40.00;20.43;;;0.80;99.90;;;;;;2613878;54;20153;-73
2023/03/03 04:31:21;;;;;;;39.37;23.00;;;0.80;99.90;;;;;;2612617;54;20803;-72
2023/03/03 04:37:09;;;;;;;41.40;23.30;;;0.80;99.90;;;;;;2613862;54;20138;-73
2023/03/03 04:42:57;;;;;;;46.70;24.70;;;0.80;99.90;;;;;;2612196;54;20147;-72
2023/03/03 04:52:50;;;;;;;48.40;25.73;;;0.70;99.90;;;;;;2613768;54;20363;-73
2023/03/03 04:58:37;;;;;;;50.60;24.70;;;0.70;99.90;;;;;;2612684;54;20350;-72
2023/03/03 05:04:25;;;;;;;40.83;25.40;;;0.80;99.90;;;;;;2613057;54;20131;-72
2023/03/03 05:10:12;;;;;;;45.97;26.43;;;0.70;99.90;;;;;;2612953;54;20146;-67
2023/03/03 05:16:00;;;;;;;49.57;26.00;;;0.80;99.90;;;;;;2613877;54;20165;-68
2023/03/03 05:21:47;;;;;;;45.97;24.30;;;0.80;99.90;;;;;;2613039;54;20126;-69
2023/03/03 05:27:35;;;;;;;41.77;23.63;;;0.80;99.90;;;;;;2613207;54;20182;-68
2023/03/03 05:33:23;;;;;;;49.00;24.20;;;0.80;99.90;;;;;;2612781;54;20154;-68
2023/03/03 05:39:10;;;;;;;41.13;24.00;;;0.70;99.90;;;;;;2612001;46;20155;-69
2023/03/03 05:44:58;;;;;;;43.33;24.87;;;0.90;99.90;;;;;;2612606;54;20250;-69
2023/03/03 05:48:18;;;;;;;42.67;23.47;;;0.80;99.90;;;;;;2613154;54;20392;-68
2023/03/03 05:50:43;;;;;;;47.60;25.97;;;0.90;99.90;;;;;;2612305;54;20665;-68
2023/03/03 05:56:31;;;;;;;49.93;24.87;;;0.80;99.90;;;;;;2612373;54;20150;-68
2023/03/03 06:02:19;;;;;;;53.57;29.27;;;0.90;99.90;;;;;;2613505;54;20648;-69
2023/03/03 06:08:06;;;;;;;46.20;27.53;;;0.90;99.90;;;;;;2614744;39;20528;-68
2023/03/03 06:13:54;;;;;;;56.17;28.67;;;0.90;99.90;;;;;;2614766;54;20149;-70
2023/03/03 06:19:42;;;;;;;53.10;26.17;;;1.00;99.90;;;;;;2612258;54;20753;-69
2023/03/03 06:25:30;;;;;;;43.20;25.70;;;1.00;99.90;;;;;;2613842;54;20126;-68
2023/03/03 06:31:18;;;;;;;44.27;24.33;;;1.00;99.90;;;;;;2612756;54;20127;-68
2023/03/03 06:37:06;;;;;;;43.23;23.50;;;1.10;99.90;;;;;;2613526;54;20122;-69
2023/03/03 06:42:53;;;;;;;52.90;27.03;;;1.00;99.90;;;;;;2614522;54;20395;-69
2023/03/03 06:52:50;;;;;;;50.93;26.07;;;1.00;99.90;;;;;;2614296;54;20953;-75
2023/03/03 06:58:37;;;;;;;51.00;26.10;;;1.00;99.90;;;;;;2606139;54;20349;-73
2023/03/03 07:04:32;;;;;;;52.67;26.67;;;1.10;99.90;;;;;;2613699;54;20147;-67
2023/03/03 07:10:26;;;;;;;64.40;26.53;;;1.10;99.90;;;;;;2612165;54;20379;-69
2023/03/03 07:16:16;;;;;;;56.60;28.30;;;1.20;99.90;;;;;;2612629;54;20367;-67
2023/03/03 07:28:41;;;;;;;66.67;31.80;;;1.10;99.90;;;;;;2612267;54;20371;-67
2023/03/03 07:41:19;;;;;;;64.73;32.70;;;1.10;99.90;;;;;;2610133;54;20942;-68
2023/03/03 07:44:38;;;;;;;71.10;30.27;;;1.10;99.90;;;;;;2610770;54;20383;-68
2023/03/03 07:54:14;;;;;;;61.20;30.00;;;1.10;99.90;;;;;;2611068;39;20707;-68
2023/03/03 08:00:13;;;;;;;52.40;28.00;;;1.40;99.90;;;;;;2610685;54;20430;-69
2023/03/03 08:12:31;;;;;;;52.23;28.73;;;1.40;99.90;;;;;;2612047;54;20411;-69
2023/03/03 08:18:24;;;;;;;60.07;30.20;;;1.40;99.90;;;;;;2613234;54;20398;-69
2023/03/03 08:24:11;;;;;;;54.17;30.10;;;1.40;99.90;;;;;;2612900;39;20950;-69
2023/03/03 08:29:59;;;;;;;47.50;26.60;;;1.40;99.90;;;;;;2611719;54;20118;-68
2023/03/03 08:35:47;;;;;;;45.90;26.97;;;1.60;99.90;;;;;;2612410;54;20133;-72
2023/03/03 08:41:35;;;;;;;54.93;27.90;;;1.40;99.90;;;;;;2612098;39;21147;-72
2023/03/03 08:47:22;;;;;;;48.77;26.30;;;1.50;99.90;;;;;;2613504;54;20199;-72
2023/03/03 08:53:12;;;;;;;49.30;26.67;;;1.60;99.90;;;;;;2610458;54;20724;-73
2023/03/03 08:58:59;;;;;;;55.27;25.30;;;1.60;99.90;;;;;;2613024;54;20928;-72
2023/03/03 09:04:47;;;;;;;47.77;27.20;;;1.60;99.90;;;;;;2613195;54;20146;-72
2023/03/03 09:10:35;;;;;;;44.93;27.17;;;1.90;99.90;;;;;;2613486;54;20143;-72
2023/03/03 09:16:22;;;;;;;41.10;24.30;;;1.90;99.90;;;;;;2613996;54;20170;-73
2023/03/03 09:19:25;;;;;;;45.43;26.90;;;2.00;99.90;;;;;;2612714;47;20526;-71
2023/03/03 09:21:53;;;;;;;48.57;26.30;;;1.90;99.90;;;;;;2612613;47;20265;-72
2023/03/03 09:27:41;;;;;;;45.60;29.03;;;2.00;99.90;;;;;;2610339;54;20366;-72
2023/03/03 09:33:45;;;;;;;43.60;25.53;;;2.10;99.90;;;;;;2612965;54;20138;-72
2023/03/03 09:39:35;;;;;;;43.23;22.40;;;2.10;99.90;;;;;;2614044;54;20334;-72
2023/03/03 09:55:51;;;;;;;46.03;26.13;;;2.30;99.90;;;;;;2614289;39;20719;-73
2023/03/03 10:14:36;;;;;;;46.30;30.27;;;2.20;99.90;;;;;;2613818;54;20354;-73
2023/03/03 10:27:01;;;;;;;47.60;28.47;;;2.20;99.90;;;;;;2614450;39;21203;-72
2023/03/03 10:52:29;;;;;;;40.00;27.10;;;2.90;99.90;;;;;;2614645;54;20430;-73
2023/03/03 11:15:41;;;;;;;53.10;29.83;;;2.80;95.00;;;;;;2614328;39;20730;-72
2023/03/03 11:28:18;;;;;;;43.27;28.80;;;3.20;91.50;;;;;;2614085;39;20793;-72
2023/03/03 11:56:56;;;;;;;61.90;29.60;;;3.90;55.80;;;;;;2612314;54;20443;-71
2023/03/03 12:28:45;;;;;;;38.53;27.43;;;4.40;57.70;;;;;;2613666;54;20398;-72
2023/03/03 12:47:37;;;;;;;48.15;33.05;;;4.70;38.40;;;;;;2613677;54;20422;-71
2023/03/03 12:56:54;;;;;;;47.20;32.60;;;4.60;43.70;;;;;;2612220;54;20928;-72
2023/03/03 13:02:57;;;;;;;41.53;28.43;;;4.60;40.60;;;;;;2613961;54;20391;-73
2023/03/03 13:09:16;;;;;;;37.30;28.40;;;4.30;44.00;;;;;;2611537;54;20342;-72
2023/03/03 13:27:58;;;;;;;31.20;26.43;;;8.30;13.80;;;;;;2612483;54;20392;-71
2023/03/03 14:06:39;;;;;;;41.57;34.00;;;6.20;14.50;;;;;;2609391;39;21007;-71
2023/03/03 14:28:51;;;;;;;31.03;27.70;;;11.60;1.00;;;;;;2612947;39;21054;-72
2023/03/03 14:34:40;;;;;;;32.80;28.07;;;12.20;1.00;;;;;;2609423;39;20466;-72
2023/03/03 14:40:33;;;;;;;33.20;29.23;;;9.90;1.00;;;;;;2613683;54;20411;-71
2023/03/03 14:46:27;;;;;;;32.60;29.03;;;12.00;1.00;;;;;;2613318;54;20391;-72
2023/03/03 14:59:22;;;;;;;30.10;25.87;;;9.80;1.00;;;;;;2614003;54;20390;-71
2023/03/03 15:05:20;;;;;;;28.67;25.70;;;10.60;1.00;;;;;;2612842;54;20956;-72
2023/03/03 15:11:17;;;;;;;28.37;25.57;;;10.50;1.00;;;;;;2612959;47;20430;-69
2023/03/03 15:17:17;;;;;;;29.33;26.40;;;11.10;1.00;;;;;;2614569;54;20375;-69
2023/03/03 15:20:21;;;;;;;27.70;24.77;;;11.30;1.00;;;;;;2614136;54;20414;-69
2023/03/03 15:29:14;;;;;;;27.80;25.00;;;10.90;1.00;;;;;;2614359;46;20419;-69
2023/03/03 15:35:05;;;;;;;26.13;23.33;;;11.40;1.00;;;;;;2614446;54;20407;-68
2023/03/03 15:41:24;;;;;;;27.73;24.73;;;9.80;1.00;;;;;;2614299;54;20351;-69
2023/03/03 15:44:17;;;;;;;24.53;21.93;;;9.70;1.00;;;;;;2614166;54;20539;-69
2023/03/03 15:56:38;;;;;;;26.10;23.30;;;9.00;1.00;;;;;;2612473;54;20472;-69
2023/03/03 16:02:30;;;;;;;27.87;23.30;;;9.60;1.00;;;;;;2614595;54;20118;-69
2023/03/03 16:41:16;;;;;;;34.10;24.27;;;6.10;12.30;;;;;;2613060;54;20395;-68
2023/03/03 18:25:54;;;;;;;38.90;25.37;;;3.40;99.10;;;;;;2613231;54;20455;-68
2023/03/03 18:31:47;;;;;;;51.83;32.00;;;3.50;94.70;;;;;;2614500;54;20342;-68
2023/03/03 18:37:40;;;;;;;43.80;29.60;;;3.60;91.90;;;;;;2613422;39;20664;-68
2023/03/03 18:54:28;;;;;;;54.03;31.43;;;3.70;93.50;;;;;;2610391;54;20503;-68
2023/03/03 19:06:30;;;;;;;48.20;31.67;;;3.80;91.20;;;;;;2611480;54;20391;-68
2023/03/03 19:12:17;;;;;;;50.40;32.57;;;3.80;88.70;;;;;;2611711;54;20404;-68
2023/03/03 19:24:38;;;;;;;48.13;32.83;;;3.90;81.40;;;;;;2614636;54;20387;-72
2023/03/03 19:50:17;;;;;;;45.40;32.57;;;3.90;88.80;;;;;;2614948;39;20543;-73
2023/03/03 19:56:10;;;;;;;47.40;32.00;;;3.90;87.50;;;;;;2613838;39;20819;-72
2023/03/03 20:09:09;;;;;;;54.57;32.03;;;4.00;85.40;;;;;;2613316;54;20399;-72
2023/03/03 20:21:26;;;;;;;43.50;31.40;;;4.00;92.80;;;;;;2614180;54;20435;-72
2023/03/03 20:27:21;;;;;;;46.80;30.73;;;3.90;94.00;;;;;;2613259;54;20468;-72
2023/03/03 20:59:30;;;;;;;52.50;35.13;;;4.00;93.70;;;;;;2611125;54;20379;-72
2023/03/03 21:02:26;;;;;;;68.27;44.60;;;3.90;95.70;;;;;;2610516;47;20405;-73
2023/03/03 21:08:14;;;;;;;50.27;36.23;;;3.90;97.80;;;;;;2611321;54;21009;-73
2023/03/03 21:20:35;;;;;;;53.97;35.23;;;3.90;99.90;;;;;;2608250;54;20390;-73
2023/03/03 21:26:45;;;;;;;56.70;40.90;;;3.90;99.90;;;;;;2607961;54;20421;-72
2023/03/03 21:36:01;;;;;;;47.23;35.30;;;3.80;99.90;;;;;;2614533;54;20447;-73
2023/03/03 21:48:09;;;;;;;53.00;37.70;;;4.00;99.90;;;;;;2612980;54;20375;-72
2023/03/03 21:53:57;;;;;;;53.43;35.73;;;4.00;99.90;;;;;;2613237;39;20784;-72
2023/03/03 21:57:09;;;;;;;51.57;35.00;;;4.00;99.90;;;;;;2613495;54;20391;-72
2023/03/03 21:59:35;;;;;;;43.93;33.67;;;4.00;99.90;;;;;;2611529;47;20170;-73
2023/03/03 22:05:24;;;;;;;40.60;31.83;;;4.00;99.90;;;;;;2613011;54;20376;-72
2023/03/03 22:11:12;;;;;;;22.83;20.43;;;4.30;94.80;;;;;;2612725;54;20434;-72
2023/03/03 22:17:00;;;;;;;20.63;18.50;;;4.60;63.20;;;;;;2613282;54;20130;-73
2023/03/03 22:22:47;;;;;;;23.20;18.03;;;4.70;56.40;;;;;;2613565;54;20669;-73
2023/03/03 22:28:35;;;;;;;17.50;15.73;;;4.90;50.40;;;;;;2613556;54;20167;-73
2023/03/03 22:34:22;;;;;;;16.93;15.40;;;4.90;49.00;;;;;;2612315;54;20131;-72
2023/03/03 22:40:11;;;;;;;15.70;14.50;;;4.90;45.00;;;;;;2613572;54;20170;-73
2023/03/03 22:45:58;;;;;;;14.67;13.17;;;5.00;43.00;;;;;;2614968;54;20402;-72
2023/03/03 22:51:46;;;;;;;15.83;14.50;;;5.00;41.10;;;;;;2614261;54;20154;-73
2023/03/03 23:01:40;;;;;;;15.90;14.50;;;5.10;40.10;;;;;;2612382;54;20936;-68
2023/03/03 23:07:28;;;;;;;17.07;14.10;;;5.10;37.80;;;;;;2613015;54;20382;-68
2023/03/03 23:13:15;;;;;;;13.83;12.40;;;5.00;37.90;;;;;;2614869;54;20374;-68
2023/03/03 23:19:03;;;;;;;16.47;12.77;;;5.00;38.10;;;;;;2614184;54;20150;-68
2023/03/03 23:24:50;;;;;;;17.83;14.27;;;4.90;40.90;;;;;;2613733;54;20151;-68
2023/03/03 23:30:38;;;;;;;18.27;13.23;;;4.90;42.00;;;;;;2613828;54;20130;-68
2023/03/03 23:36:25;;;;;;;18.60;14.00;;;4.90;43.10;;;;;;2613989;54;20130;-72
2023/03/03 23:42:13;;;;;;;21.03;14.40;;;4.80;47.80;;;;;;2614477;54;20182;-71
2023/03/03 23:48:01;;;;;;;19.10;14.87;;;4.90;48.90;;;;;;2613894;54;20138;-73
2023/03/03 23:53:48;;;;;;;15.97;14.37;;;4.90;51.40;;;;;;2613453;54;20134;-72
